createdAt,value
2022-11-26T00:01:10.428Z,3.83
2022-11-26T00:03:11.572Z,3.82
2022-11-26T00:05:12.724Z,3.82
2022-11-26T00:07:13.985Z,3.82
2022-11-26T00:11:16.423Z,3.82
2022-11-26T00:13:18.213Z,3.82
2022-11-26T00:17:21.085Z,3.82
2022-11-26T00:19:22.718Z,3.82
2022-11-26T00:21:24.206Z,3.82
2022-11-26T00:23:25.492Z,3.82
2022-11-26T00:24:09.142Z,3.82
2022-11-26T00:26:11.018Z,3.82
2022-11-26T00:28:12.147Z,3.82
2022-11-26T00:30:13.317Z,3.82
2022-11-26T00:32:14.578Z,3.82
2022-11-26T00:34:16.372Z,3.82
2022-11-26T00:38:19.162Z,3.82
2022-11-26T00:40:20.552Z,3.82
2022-11-26T00:42:21.742Z,3.82
2022-11-26T00:44:23.495Z,3.82
2022-11-26T00:46:25.418Z,3.82
2022-11-26T00:48:26.454Z,3.82
2022-11-26T00:50:28.339Z,3.82
2022-11-26T00:54:31.677Z,3.82
2022-11-26T00:56:36.571Z,3.82
2022-11-26T00:58:34.514Z,3.82
2022-11-26T01:00:36.234Z,3.82
2022-11-26T01:04:39.652Z,3.82
2022-11-26T01:06:40.707Z,3.82
2022-11-26T01:10:43.373Z,3.82
2022-11-26T01:12:45.198Z,3.82
2022-11-26T01:14:46.901Z,3.82
2022-11-26T01:16:48.474Z,3.81
2022-11-26T01:20:51.180Z,3.82
2022-11-26T01:22:53.009Z,3.82
2022-11-26T01:26:56.025Z,3.82
2022-11-26T01:28:57.241Z,3.82
2022-11-26T01:30:58.324Z,3.82
2022-11-26T01:32:59.448Z,3.81
2022-11-26T01:37:03.017Z,3.81
2022-11-26T01:39:04.755Z,3.81
2022-11-26T01:41:06.412Z,3.81
2022-11-26T01:43:07.560Z,3.81
2022-11-26T01:45:09.311Z,3.81
2022-11-26T01:47:11.116Z,3.81
2022-11-26T01:49:12.632Z,3.81
2022-11-26T01:53:15.585Z,3.81
2022-11-26T01:55:16.925Z,3.81
2022-11-26T01:57:18.820Z,3.81
2022-11-26T01:59:20.379Z,3.81
2022-11-26T02:01:21.362Z,3.81
2022-11-26T02:03:22.869Z,3.81
2022-11-26T02:05:24.633Z,3.81
2022-11-26T02:09:27.948Z,3.81
2022-11-26T02:11:29.580Z,3.81
2022-11-26T02:13:31.516Z,3.81
2022-11-26T02:15:33.409Z,3.81
2022-11-26T02:19:37.036Z,3.81
2022-11-26T02:21:38.560Z,3.81
2022-11-26T02:23:39.988Z,3.8
2022-11-26T02:25:41.209Z,3.81
2022-11-26T02:27:42.661Z,3.81
2022-11-26T02:29:44.278Z,3.81
2022-11-26T02:31:45.807Z,3.8
2022-11-26T02:35:48.256Z,3.81
2022-11-26T02:37:58.223Z,3.8
2022-11-26T02:39:51.467Z,3.8
2022-11-26T02:41:52.635Z,3.8
2022-11-26T02:43:54.198Z,3.8
2022-11-26T02:45:56.231Z,3.8
2022-11-26T02:47:57.568Z,3.8
2022-11-26T02:52:00.906Z,3.8
2022-11-26T02:54:02.463Z,3.8
2022-11-26T02:56:03.803Z,3.8
2022-11-26T02:58:05.698Z,3.8
2022-11-26T03:02:08.900Z,3.8
2022-11-26T03:04:10.191Z,3.8
2022-11-26T03:08:13.421Z,3.8
2022-11-26T03:10:14.991Z,3.8
2022-11-26T03:12:16.450Z,3.8
2022-11-26T03:14:18.191Z,3.8
2022-11-26T03:18:21.618Z,3.8
2022-11-26T03:20:23.429Z,3.8
2022-11-26T03:22:24.448Z,3.8
2022-11-26T03:24:26.382Z,3.8
2022-11-26T03:26:27.561Z,3.8
2022-11-26T03:30:30.908Z,3.8
2022-11-26T03:34:33.489Z,3.8
2022-11-26T03:36:35.101Z,3.8
2022-11-26T03:38:36.233Z,3.8
2022-11-26T03:40:37.383Z,3.8
2022-11-26T03:44:40.587Z,3.8
2022-11-26T03:46:41.857Z,3.8
2022-11-26T03:48:43.195Z,3.8
2022-11-26T03:50:44.768Z,3.8
2022-11-26T03:52:46.598Z,3.8
2022-11-26T03:54:48.361Z,3.8
2022-11-26T03:56:49.781Z,3.8
2022-11-26T04:00:52.918Z,3.8
2022-11-26T04:02:54.751Z,3.79
2022-11-26T04:06:57.487Z,3.8
2022-11-26T04:08:58.838Z,3.8
2022-11-26T04:11:00.117Z,3.79
2022-11-26T04:13:01.354Z,3.8
2022-11-26T04:17:05.165Z,3.79
2022-11-26T04:19:06.848Z,3.79
2022-11-26T04:21:08.805Z,3.79
2022-11-26T04:23:10.393Z,3.79
2022-11-26T04:27:12.571Z,3.79
2022-11-26T04:29:14.334Z,3.79
2022-11-26T04:31:15.357Z,3.79
2022-11-26T04:33:16.940Z,3.79
2022-11-26T04:35:18.860Z,3.79
2022-11-26T04:37:20.356Z,3.79
2022-11-26T04:39:21.944Z,3.79
2022-11-26T04:43:25.395Z,3.79
2022-11-26T04:45:26.524Z,3.79
2022-11-26T04:49:30.469Z,3.79
2022-11-26T04:51:32.016Z,3.79
2022-11-26T04:53:33.869Z,3.78
2022-11-26T04:55:35.335Z,3.78
2022-11-26T04:59:37.628Z,3.79
2022-11-26T05:01:39.174Z,3.79
2022-11-26T05:03:40.372Z,3.79
2022-11-26T05:05:41.402Z,3.79
2022-11-26T05:07:42.776Z,3.79
2022-11-26T05:09:43.917Z,3.79
2022-11-26T05:11:45.337Z,3.79
2022-11-26T05:15:48.470Z,3.78
2022-11-26T05:17:50.365Z,3.78
2022-11-26T05:19:51.967Z,3.78
2022-11-26T05:21:53.118Z,3.78
2022-11-26T05:25:56.181Z,3.78
2022-11-26T05:27:57.721Z,3.78
2022-11-26T05:29:58.880Z,3.78
2022-11-26T05:32:00.279Z,3.78
2022-11-26T05:34:01.163Z,3.78
2022-11-26T05:36:02.768Z,3.78
2022-11-26T05:38:04.509Z,3.78
2022-11-26T05:40:06.311Z,3.78
2022-11-26T05:42:09.482Z,3.78
2022-11-26T05:44:09.277Z,3.78
2022-11-26T05:46:11.088Z,3.78
2022-11-26T05:48:12.040Z,3.78
2022-11-26T05:50:13.132Z,3.78
2022-11-26T05:52:15.079Z,3.78
2022-11-26T05:56:18.458Z,3.78
2022-11-26T05:58:19.759Z,3.78
2022-11-26T06:00:21.691Z,3.78
2022-11-26T06:02:23.644Z,3.78
2022-11-26T06:04:25.152Z,3.78
2022-11-26T06:08:28.035Z,3.78
2022-11-26T06:10:29.104Z,3.78
2022-11-26T06:12:30.822Z,3.78
2022-11-26T06:14:31.988Z,3.78
2022-11-26T06:16:33.553Z,3.78
2022-11-26T06:18:34.483Z,3.78
2022-11-26T06:20:36.169Z,3.78
2022-11-26T06:24:39.443Z,3.78
2022-11-26T06:26:40.987Z,3.78
2022-11-26T06:28:42.556Z,3.78
2022-11-26T06:30:44.173Z,3.78
2022-11-26T06:32:45.625Z,3.78
2022-11-26T06:34:51.184Z,3.78
2022-11-26T06:36:48.985Z,3.78
2022-11-26T06:40:52.588Z,3.78
2022-11-26T06:42:54.519Z,3.78
2022-11-26T06:44:59.545Z,3.78
2022-11-26T06:46:56.978Z,3.77
2022-11-26T06:50:59.484Z,3.77
2022-11-26T06:53:00.781Z,3.77
2022-11-26T06:57:02.884Z,3.78
2022-11-26T06:59:04.037Z,3.78
2022-11-26T07:01:05.375Z,3.77
2022-11-26T07:03:06.549Z,3.77
2022-11-26T07:07:09.876Z,3.77
2022-11-26T07:09:10.938Z,3.77
2022-11-26T07:09:54.815Z,3.77
2022-11-26T07:11:56.659Z,3.77
2022-11-26T07:13:58.002Z,3.77
2022-11-26T07:18:00.949Z,3.77
2022-11-26T07:20:02.234Z,3.77
2022-11-26T07:22:03.423Z,3.77
2022-11-26T07:24:05.145Z,3.77
2022-11-26T07:28:07.987Z,3.77
2022-11-26T07:30:09.841Z,3.77
2022-11-26T07:32:11.178Z,3.77
2022-11-26T07:34:12.992Z,3.77
2022-11-26T07:36:13.986Z,3.77
2022-11-26T07:38:15.218Z,3.77
2022-11-26T07:40:16.434Z,3.77
2022-11-26T07:44:19.203Z,3.77
2022-11-26T07:46:20.647Z,3.77
2022-11-26T07:48:21.601Z,3.77
2022-11-26T07:50:23.307Z,3.77
2022-11-26T07:52:24.429Z,3.77
2022-11-26T07:54:25.705Z,3.77
2022-11-26T07:56:27.054Z,3.76
2022-11-26T08:00:29.777Z,3.77
2022-11-26T08:02:31.231Z,3.77
2022-11-26T08:04:32.567Z,3.76
2022-11-26T08:06:33.980Z,3.77
2022-11-26T08:08:34.965Z,3.77
2022-11-26T08:10:36.834Z,3.76
2022-11-26T08:12:38.665Z,3.77
2022-11-26T08:16:41.445Z,3.77
2022-11-26T08:18:43.094Z,3.76
2022-11-26T08:20:44.805Z,3.77
2022-11-26T08:22:46.502Z,3.76
2022-11-26T08:26:49.548Z,3.76
2022-11-26T08:28:51.205Z,3.76
2022-11-26T08:30:52.221Z,3.76
2022-11-26T08:32:53.905Z,3.76
2022-11-26T08:34:55.460Z,3.76
2022-11-26T08:36:56.897Z,3.76
2022-11-26T08:38:58.430Z,3.76
2022-11-26T08:43:01.804Z,3.76
2022-11-26T08:45:03.426Z,3.76
2022-11-26T08:47:04.410Z,3.76
2022-11-26T08:49:06.139Z,3.76
2022-11-26T08:51:07.600Z,3.76
2022-11-26T08:53:08.460Z,3.76
2022-11-26T08:55:10.279Z,3.76
2022-11-26T08:59:13.385Z,3.76
2022-11-26T09:01:15.084Z,3.76
2022-11-26T09:03:16.734Z,3.76
2022-11-26T09:05:18.556Z,3.76
2022-11-26T09:09:20.752Z,3.76
2022-11-26T09:11:22.212Z,3.76
2022-11-26T09:15:24.993Z,3.76
2022-11-26T09:17:26.271Z,3.76
2022-11-26T09:19:27.819Z,3.76
2022-11-26T09:21:29.705Z,3.76
2022-11-26T09:25:33.551Z,3.76
2022-11-26T09:27:34.849Z,3.76
2022-11-26T09:29:36.385Z,3.76
2022-11-26T09:31:45.976Z,3.76
2022-11-26T09:33:38.797Z,3.76
2022-11-26T09:35:40.518Z,3.76
2022-11-26T09:37:44.198Z,3.76
2022-11-26T09:41:45.715Z,3.76
2022-11-26T09:43:47.318Z,3.76
2022-11-26T09:45:48.493Z,3.76
2022-11-26T09:47:50.284Z,3.76
2022-11-26T09:51:52.904Z,3.76
2022-11-26T09:53:54.558Z,3.76
2022-11-26T09:55:56.071Z,3.76
2022-11-26T09:57:57.729Z,3.76
2022-11-26T09:59:59.278Z,3.76
2022-11-26T10:02:00.570Z,3.76
2022-11-26T10:04:01.910Z,3.76
2022-11-26T10:08:04.832Z,3.77
2022-11-26T10:10:06.388Z,3.77
2022-11-26T10:14:09.519Z,3.78
2022-11-26T10:16:11.301Z,3.79
2022-11-26T10:18:12.504Z,3.8
2022-11-26T10:20:13.581Z,3.82
2022-11-26T10:24:16.274Z,3.78
2022-11-26T10:26:17.672Z,3.79
2022-11-26T10:28:18.952Z,3.79
2022-11-26T10:30:20.636Z,3.79
2022-11-26T10:34:22.987Z,3.79
2022-11-26T10:36:24.422Z,3.78
2022-11-26T10:38:26.176Z,3.78
2022-11-26T10:40:27.301Z,3.78
2022-11-26T10:42:28.907Z,3.78
2022-11-26T10:44:30.634Z,3.78
2022-11-26T10:46:32.516Z,3.79
2022-11-26T10:50:46.998Z,3.8
2022-11-26T10:52:36.503Z,3.82
2022-11-26T10:54:38.188Z,3.82
2022-11-26T10:56:39.241Z,3.81
2022-11-26T10:58:40.286Z,3.8
2022-11-26T11:00:42.138Z,3.8
2022-11-26T11:02:43.955Z,3.8
2022-11-26T11:06:46.446Z,3.82
2022-11-26T11:08:47.677Z,3.82
2022-11-26T11:10:49.085Z,3.82
2022-11-26T11:12:50.073Z,3.84
2022-11-26T11:14:51.786Z,3.84
2022-11-26T11:16:53.097Z,3.84
2022-11-26T11:18:54.857Z,3.85
2022-11-26T11:22:57.497Z,3.86
2022-11-26T11:24:58.904Z,3.86
2022-11-26T11:27:00.459Z,3.86
2022-11-26T11:29:01.637Z,3.86
2022-11-26T11:33:04.023Z,3.87
2022-11-26T11:35:05.506Z,3.85
2022-11-26T11:39:07.859Z,3.84
2022-11-26T11:41:09.373Z,3.84
2022-11-26T11:43:10.615Z,3.84
2022-11-26T11:45:12.458Z,3.84
2022-11-26T11:49:15.765Z,3.84
2022-11-26T11:51:16.766Z,3.84
2022-11-26T11:53:18.000Z,3.83
2022-11-26T11:55:19.038Z,3.84
2022-11-26T11:59:22.404Z,3.83
2022-11-26T12:01:24.298Z,3.83
2022-11-26T12:05:27.830Z,3.83
2022-11-26T12:07:29.662Z,3.83
2022-11-26T12:09:31.029Z,3.83
2022-11-26T12:11:32.708Z,3.83
2022-11-26T12:15:35.902Z,3.84
2022-11-26T12:17:37.122Z,3.83
2022-11-26T12:21:40.100Z,3.84
2022-11-26T12:23:41.924Z,3.84
2022-11-26T12:25:43.293Z,3.84
2022-11-26T12:27:44.819Z,3.84
2022-11-26T12:31:47.626Z,3.83
2022-11-26T12:33:49.128Z,3.84
2022-11-26T12:35:50.545Z,3.83
2022-11-26T12:37:52.107Z,3.84
2022-11-26T12:39:53.775Z,3.84
2022-11-26T12:41:55.050Z,3.83
2022-11-26T12:43:56.464Z,3.83
2022-11-26T12:47:59.696Z,3.83
2022-11-26T12:50:01.387Z,3.83
2022-11-26T12:52:03.040Z,3.83
2022-11-26T12:54:04.796Z,3.83
2022-11-26T12:58:07.595Z,3.83
2022-11-26T13:00:09.527Z,3.83
2022-11-26T13:04:36.509Z,3.83
2022-11-26T13:06:14.004Z,3.82
2022-11-26T13:08:15.600Z,3.82
2022-11-26T13:10:17.482Z,3.82
2022-11-26T13:14:19.859Z,3.82
2022-11-26T13:16:21.159Z,3.82
2022-11-26T13:18:22.494Z,3.83
2022-11-26T13:20:23.590Z,3.82
2022-11-26T13:22:25.390Z,3.82
2022-11-26T13:24:26.584Z,3.82
2022-11-26T13:26:27.557Z,3.82
2022-11-26T13:30:29.955Z,3.83
2022-11-26T13:32:31.370Z,3.83
2022-11-26T13:34:32.424Z,3.82
2022-11-26T13:36:33.781Z,3.82
2022-11-26T13:40:37.218Z,3.82
2022-11-26T13:42:39.138Z,3.82
2022-11-26T13:44:40.391Z,3.82
2022-11-26T13:46:41.333Z,3.82
2022-11-26T13:48:43.117Z,3.82
2022-11-26T13:50:44.667Z,3.82
2022-11-26T13:52:46.470Z,3.82
2022-11-26T13:55:31.935Z,3.82
2022-11-26T13:57:33.678Z,3.82
2022-11-26T13:59:35.321Z,3.82
2022-11-26T14:01:36.583Z,3.82
2022-11-26T14:03:37.799Z,3.82
2022-11-26T14:07:40.743Z,3.82
2022-11-26T14:09:41.705Z,3.82
2022-11-26T14:11:43.562Z,3.82
2022-11-26T14:13:45.384Z,3.82
2022-11-26T14:17:48.169Z,3.82
2022-11-26T14:19:49.629Z,3.82
2022-11-26T14:21:51.456Z,3.82
2022-11-26T14:23:52.651Z,3.81
2022-11-26T14:25:54.473Z,3.82
2022-11-26T14:27:56.205Z,3.82
2022-11-26T14:29:58.157Z,3.82
2022-11-26T14:34:01.435Z,3.81
2022-11-26T14:36:02.435Z,3.82
2022-11-26T14:38:04.136Z,3.81
2022-11-26T14:40:05.084Z,3.81
2022-11-26T14:42:06.807Z,3.81
2022-11-26T14:44:08.017Z,3.81
2022-11-26T14:46:09.949Z,3.81
2022-11-26T14:50:12.746Z,3.81
2022-11-26T14:52:14.470Z,3.81
2022-11-26T14:54:15.927Z,3.81
2022-11-26T14:56:17.432Z,3.81
2022-11-26T14:58:18.791Z,3.81
2022-11-26T15:00:20.697Z,3.81
2022-11-26T15:02:22.507Z,3.81
2022-11-26T15:06:24.655Z,3.81
2022-11-26T15:08:25.762Z,3.81
2022-11-26T15:12:29.522Z,3.81
2022-11-26T15:16:32.684Z,3.81
2022-11-26T15:18:34.187Z,3.81
2022-11-26T15:20:35.235Z,3.81
2022-11-26T15:22:36.497Z,3.8
2022-11-26T15:24:38.174Z,3.8
2022-11-26T15:26:39.313Z,3.81
2022-11-26T15:28:41.263Z,3.8
2022-11-26T15:32:44.208Z,3.8
2022-11-26T15:34:45.478Z,3.8
2022-11-26T15:36:46.519Z,3.8
2022-11-26T15:38:48.150Z,3.8
2022-11-26T15:40:49.719Z,3.8
2022-11-26T15:42:50.871Z,3.8
2022-11-26T15:44:52.710Z,3.8
2022-11-26T15:48:55.533Z,3.8
2022-11-26T15:50:57.370Z,3.8
2022-11-26T15:52:58.499Z,3.8
2022-11-26T15:55:12.290Z,3.8
2022-11-26T15:59:02.968Z,3.8
2022-11-26T16:01:04.195Z,3.8
2022-11-26T16:05:06.569Z,3.8
2022-11-26T16:07:08.263Z,3.8
2022-11-26T16:09:10.103Z,3.8
2022-11-26T16:11:10.981Z,3.8
2022-11-26T16:15:16.025Z,3.8
2022-11-26T16:17:15.198Z,3.8
2022-11-26T16:19:16.873Z,3.8
2022-11-26T16:21:17.840Z,3.8
2022-11-26T16:23:19.301Z,3.8
2022-11-26T16:25:20.421Z,3.8
2022-11-26T16:27:22.131Z,3.8
2022-11-26T16:31:25.030Z,3.8
2022-11-26T16:33:26.241Z,3.8
2022-11-26T16:35:43.940Z,3.8
2022-11-26T16:37:29.249Z,3.8
2022-11-26T16:41:33.047Z,3.8
2022-11-26T16:43:34.029Z,3.8
2022-11-26T16:45:35.778Z,3.8
2022-11-26T16:47:37.616Z,3.79
2022-11-26T16:49:38.813Z,3.79
2022-11-26T16:51:40.507Z,3.8
2022-11-26T16:53:42.485Z,3.79
2022-11-26T16:57:46.558Z,3.79
2022-11-26T16:59:47.334Z,3.79
2022-11-26T17:03:49.999Z,3.79
2022-11-26T17:05:51.751Z,3.79
2022-11-26T17:07:53.242Z,3.79
2022-11-26T17:09:54.642Z,3.79
2022-11-26T17:13:57.386Z,3.79
2022-11-26T17:15:58.702Z,3.79
2022-11-26T17:18:00.435Z,3.79
2022-11-26T17:20:01.657Z,3.79
2022-11-26T17:24:04.720Z,3.79
2022-11-26T17:26:06.281Z,3.79
2022-11-26T17:28:07.996Z,3.79
2022-11-26T17:30:09.845Z,3.79
2022-11-26T17:32:11.656Z,3.78
2022-11-26T17:34:13.015Z,3.79
2022-11-26T17:36:14.796Z,3.79
2022-11-26T17:40:18.113Z,3.78
2022-11-26T17:42:19.908Z,3.78
2022-11-26T17:46:22.538Z,3.79
2022-11-26T17:48:26.656Z,3.79
2022-11-26T17:50:25.804Z,3.79
2022-11-26T17:52:27.016Z,3.78
2022-11-26T17:56:30.080Z,3.78
2022-11-26T17:58:32.003Z,3.78
2022-11-26T18:00:33.188Z,3.78
2022-11-26T18:02:34.602Z,3.78
2022-11-26T18:06:37.064Z,3.78
2022-11-26T18:08:38.508Z,3.78
2022-11-26T18:12:41.480Z,3.78
2022-11-26T18:14:42.856Z,3.78
2022-11-26T18:16:44.334Z,3.78
2022-11-26T18:18:46.089Z,3.78
2022-11-26T18:22:48.913Z,3.78
2022-11-26T18:24:53.383Z,3.78
2022-11-26T18:26:52.661Z,3.78
2022-11-26T18:28:53.953Z,3.78
2022-11-26T18:30:55.143Z,3.78
2022-11-26T18:32:57.051Z,3.78
2022-11-26T18:34:58.293Z,3.78
2022-11-26T18:39:00.836Z,3.78
2022-11-26T18:41:01.947Z,3.78
2022-11-26T18:43:03.164Z,3.78
2022-11-26T18:45:04.335Z,3.78
2022-11-26T18:47:08.122Z,3.78
2022-11-26T18:49:06.931Z,3.78
2022-11-26T18:51:08.139Z,3.78
2022-11-26T18:55:11.430Z,3.78
2022-11-26T18:57:13.133Z,3.78
2022-11-26T18:59:14.308Z,3.77
2022-11-26T19:01:16.362Z,3.78
2022-11-26T19:05:18.516Z,3.78
2022-11-26T19:07:19.707Z,3.78
2022-11-26T19:11:22.159Z,3.78
2022-11-26T19:13:23.832Z,3.77
2022-11-26T19:15:25.454Z,3.77
2022-11-26T19:17:26.564Z,3.77
2022-11-26T19:19:28.293Z,3.77
2022-11-26T19:21:29.391Z,3.77
2022-11-26T19:23:31.289Z,3.77
2022-11-26T19:27:34.182Z,3.77
2022-11-26T19:29:35.514Z,3.77
2022-11-26T19:31:37.324Z,3.77
2022-11-26T19:33:39.079Z,3.77
2022-11-26T19:37:42.708Z,3.77
2022-11-26T19:39:44.666Z,3.77
2022-11-26T19:41:46.705Z,3.77
2022-11-26T19:43:48.113Z,3.77
2022-11-26T19:45:49.872Z,3.77
2022-11-26T19:49:52.777Z,3.77
2022-11-26T19:53:55.552Z,3.77
2022-11-26T19:55:56.601Z,3.77
2022-11-26T19:57:58.486Z,3.77
2022-11-26T19:59:59.717Z,3.77
2022-11-26T20:02:01.194Z,3.76
2022-11-26T20:04:02.233Z,3.77
2022-11-26T20:06:03.349Z,3.76
2022-11-26T20:10:06.356Z,3.76
2022-11-26T20:12:07.633Z,3.76
2022-11-26T20:14:08.801Z,3.76
2022-11-26T20:16:10.189Z,3.76
2022-11-26T20:20:12.799Z,3.76
2022-11-26T20:22:14.327Z,3.76
2022-11-26T20:24:16.143Z,3.76
2022-11-26T20:26:17.341Z,3.76
2022-11-26T20:28:18.787Z,3.76
2022-11-26T20:30:19.993Z,3.76
2022-11-26T20:32:21.071Z,3.76
2022-11-26T20:36:24.234Z,3.76
2022-11-26T20:38:25.968Z,3.76
2022-11-26T20:41:11.098Z,3.76
2022-11-26T20:43:12.887Z,3.76
2022-11-26T20:47:16.661Z,3.76
2022-11-26T20:49:18.386Z,3.76
2022-11-26T20:51:20.375Z,3.76
2022-11-26T20:53:22.014Z,3.76
2022-11-26T20:57:25.288Z,3.76
2022-11-26T20:59:26.639Z,3.76
2022-11-26T21:01:28.580Z,3.75
2022-11-26T21:03:29.916Z,3.76
2022-11-26T21:05:31.133Z,3.76
2022-11-26T21:07:32.475Z,3.76
2022-11-26T21:09:34.300Z,3.76
2022-11-26T21:13:36.748Z,3.76
2022-11-26T21:15:38.003Z,3.75
2022-11-26T21:17:39.141Z,3.76
2022-11-26T21:19:41.057Z,3.75
2022-11-26T21:21:42.508Z,3.75
2022-11-26T21:23:44.035Z,3.76
2022-11-26T21:25:45.419Z,3.75
2022-11-26T21:27:50.570Z,3.75
2022-11-26T21:29:49.119Z,3.75
2022-11-26T21:31:50.874Z,3.75
2022-11-26T21:33:52.639Z,3.75
2022-11-26T21:35:53.901Z,3.75
2022-11-26T21:37:55.330Z,3.75
2022-11-26T21:39:57.056Z,3.75
2022-11-26T21:41:58.415Z,3.75
2022-11-26T21:46:01.588Z,3.75
2022-11-26T21:48:03.616Z,3.75
2022-11-26T21:50:04.726Z,3.75
2022-11-26T21:52:06.457Z,3.75
2022-11-26T21:56:09.975Z,3.75
2022-11-26T21:58:11.114Z,3.75
2022-11-26T22:00:12.763Z,3.75
2022-11-26T22:02:14.308Z,3.75
2022-11-26T22:04:16.309Z,3.75
2022-11-26T22:06:17.451Z,3.74
2022-11-26T22:08:18.913Z,3.74
2022-11-26T22:12:22.336Z,3.75
2022-11-26T22:14:24.355Z,3.74
2022-11-26T22:16:25.689Z,3.74
2022-11-26T22:18:27.221Z,3.74
2022-11-26T22:20:29.014Z,3.74
2022-11-26T22:22:30.470Z,3.74
2022-11-26T22:24:31.555Z,3.74
2022-11-26T22:28:34.139Z,3.74
2022-11-26T22:30:35.758Z,3.74
2022-11-26T22:34:38.853Z,3.74
2022-11-26T22:36:40.423Z,3.74
2022-11-26T22:38:42.409Z,3.74
2022-11-26T22:40:43.657Z,3.74
2022-11-26T22:42:45.300Z,3.74
2022-11-26T22:44:46.402Z,3.74
2022-11-26T22:46:47.516Z,3.74
2022-11-26T22:48:49.410Z,3.74
2022-11-26T22:50:50.862Z,3.74
2022-11-26T22:54:54.065Z,3.74
2022-11-26T22:56:55.504Z,3.74
2022-11-26T22:58:57.231Z,3.74
2022-11-26T23:00:58.355Z,3.74
2022-11-26T23:03:00.358Z,3.74
2022-11-26T23:05:01.691Z,3.74
2022-11-26T23:07:03.642Z,3.74
2022-11-26T23:11:06.236Z,3.74
2022-11-26T23:13:07.615Z,3.74
2022-11-26T23:15:09.534Z,3.74
2022-11-26T23:17:11.131Z,3.74
2022-11-26T23:21:14.390Z,3.74
2022-11-26T23:23:15.543Z,3.74
2022-11-26T23:27:19.143Z,3.74
2022-11-26T23:29:20.917Z,3.74
2022-11-26T23:31:22.113Z,3.73
2022-11-26T23:33:23.665Z,3.73
2022-11-26T23:37:26.394Z,3.73
2022-11-26T23:39:27.915Z,3.73
2022-11-26T23:41:29.663Z,3.73
2022-11-26T23:43:31.123Z,3.73
2022-11-26T23:45:32.279Z,3.73
2022-11-26T23:47:34.061Z,3.73
2022-11-26T23:49:35.171Z,3.73
2022-11-26T23:53:38.156Z,3.73
2022-11-26T23:55:40.084Z,3.73
2022-11-26T23:57:41.214Z,3.73
2022-11-26T23:59:42.513Z,3.73
